Vicksburg, Mississippi
Current Conditions -  °F | °C
As of 9:35 PM on Wednesday 22 Oct 2014 (Local Time) from KVKS Reporting Station
Clear Clear  
Wind Chill: 15°   Ceiling: Unl
Heat Index: 15°   Visibility: 10mi
Dew Point:   Wind: 0mph
Humidity: 67%   Direction: NA
Pressure: 30.13"   Gusts: NA
Location:  32.35°N, 90.88°W
Report Text: KVKS 230235Z AUTO 00000KT 10SM CLR 15/09 A3013 RMK A01
Loading
Personal Weather Stations






























Interactive Weather Map
Tropical Storm Tracking
New forecast layout! Learn more

10-Day Weather Forecast

Advertisements
Track Severe Weather on mobile